sensor_id;sensor_type;location;lat;lon;timestamp;pressure;altitude;pressure_sealevel;temperature;humidity
64336;BME280;50672;53.362;-6.240;2023-04-09T00:00:42;102041.94;;;10.43;57.84
64336;BME280;50672;53.362;-6.240;2023-04-09T00:03:09;102050.38;;;10.40;57.96
64336;BME280;50672;53.362;-6.240;2023-04-09T00:05:39;102049.81;;;10.37;57.83
64336;BME280;50672;53.362;-6.240;2023-04-09T00:08:06;102053.53;;;10.36;58.02
64336;BME280;50672;53.362;-6.240;2023-04-09T00:10:33;102065.53;;;10.33;58.00
64336;BME280;50672;53.362;-6.240;2023-04-09T00:13:00;102060.94;;;10.34;57.92
64336;BME280;50672;53.362;-6.240;2023-04-09T00:15:28;102052.78;;;10.34;58.22
64336;BME280;50672;53.362;-6.240;2023-04-09T00:17:57;102040.94;;;10.35;58.07
64336;BME280;50672;53.362;-6.240;2023-04-09T00:20:24;102033.63;;;10.35;58.26
64336;BME280;50672;53.362;-6.240;2023-04-09T00:22:51;102028.28;;;10.34;58.24
64336;BME280;50672;53.362;-6.240;2023-04-09T00:25:18;102028.06;;;10.37;58.60
64336;BME280;50672;53.362;-6.240;2023-04-09T00:27:45;102023.47;;;10.37;58.61
64336;BME280;50672;53.362;-6.240;2023-04-09T00:30:12;102026.78;;;10.41;58.50
64336;BME280;50672;53.362;-6.240;2023-04-09T00:32:39;102023.03;;;10.42;58.60
64336;BME280;50672;53.362;-6.240;2023-04-09T00:35:07;102032.63;;;10.46;58.74
64336;BME280;50672;53.362;-6.240;2023-04-09T00:37:34;102029.59;;;10.49;58.76
64336;BME280;50672;53.362;-6.240;2023-04-09T00:40:01;102029.59;;;10.49;59.09
64336;BME280;50672;53.362;-6.240;2023-04-09T00:42:32;102042.06;;;10.52;58.97
64336;BME280;50672;53.362;-6.240;2023-04-09T00:44:59;102034.94;;;10.51;59.00
64336;BME280;50672;53.362;-6.240;2023-04-09T00:47:27;102024.31;;;10.48;59.46
64336;BME280;50672;53.362;-6.240;2023-04-09T00:49:55;102023.16;;;10.50;59.32
64336;BME280;50672;53.362;-6.240;2023-04-09T00:52:23;102014.16;;;10.50;59.76
64336;BME280;50672;53.362;-6.240;2023-04-09T00:54:50;102012.13;;;10.52;59.68
64336;BME280;50672;53.362;-6.240;2023-04-09T00:57:18;102006.97;;;10.49;60.00
64336;BME280;50672;53.362;-6.240;2023-04-09T00:59:45;101997.38;;;10.45;60.12
64336;BME280;50672;53.362;-6.240;2023-04-09T01:02:12;102001.97;;;10.44;60.16
64336;BME280;50672;53.362;-6.240;2023-04-09T01:04:40;102014.00;;;10.41;60.15
64336;BME280;50672;53.362;-6.240;2023-04-09T01:07:17;101997.22;;;10.36;60.59
64336;BME280;50672;53.362;-6.240;2023-04-09T01:15:30;101983.03;;;10.23;61.23
64336;BME280;50672;53.362;-6.240;2023-04-09T01:18:06;101981.31;;;10.22;61.27
64336;BME280;50672;53.362;-6.240;2023-04-09T01:20:48;101979.03;;;10.17;61.60
64336;BME280;50672;53.362;-6.240;2023-04-09T01:23:40;101975.28;;;10.18;61.52
64336;BME280;50672;53.362;-6.240;2023-04-09T01:28:56;101965.00;;;10.22;61.81
64336;BME280;50672;53.362;-6.240;2023-04-09T01:31:31;101968.25;;;10.25;61.85
64336;BME280;50672;53.362;-6.240;2023-04-09T01:33:59;101963.41;;;10.29;62.27
64336;BME280;50672;53.362;-6.240;2023-04-09T01:36:29;101962.25;;;10.32;61.85
64336;BME280;50672;53.362;-6.240;2023-04-09T01:38:59;101956.66;;;10.33;61.93
64336;BME280;50672;53.362;-6.240;2023-04-09T01:41:27;101956.41;;;10.36;62.21
64336;BME280;50672;53.362;-6.240;2023-04-09T01:43:57;101952.69;;;10.37;62.17
64336;BME280;50672;53.362;-6.240;2023-04-09T01:46:28;101953.53;;;10.38;61.87
64336;BME280;50672;53.362;-6.240;2023-04-09T01:48:55;101951.56;;;10.40;61.98
64336;BME280;50672;53.362;-6.240;2023-04-09T01:51:23;101955.13;;;10.40;62.16
64336;BME280;50672;53.362;-6.240;2023-04-09T01:53:50;101953.41;;;10.39;61.82
64336;BME280;50672;53.362;-6.240;2023-04-09T01:56:17;101942.66;;;10.38;61.87
64336;BME280;50672;53.362;-6.240;2023-04-09T01:58:44;101936.66;;;10.34;62.11
64336;BME280;50672;53.362;-6.240;2023-04-09T02:01:28;101933.94;;;10.34;62.01
64336;BME280;50672;53.362;-6.240;2023-04-09T02:04:03;101929.34;;;10.35;61.74
64336;BME280;50672;53.362;-6.240;2023-04-09T02:06:39;101917.47;;;10.36;61.86
64336;BME280;50672;53.362;-6.240;2023-04-09T02:09:08;101905.81;;;10.34;61.73
64336;BME280;50672;53.362;-6.240;2023-04-09T02:11:40;101883.63;;;10.29;61.69
64336;BME280;50672;53.362;-6.240;2023-04-09T02:14:08;101879.88;;;10.30;61.97
64336;BME280;50672;53.362;-6.240;2023-04-09T02:16:38;101875.75;;;10.25;61.87
64336;BME280;50672;53.362;-6.240;2023-04-09T02:19:04;101880.50;;;10.23;61.97
64336;BME280;50672;53.362;-6.240;2023-04-09T02:21:31;101878.06;;;10.20;62.34
64336;BME280;50672;53.362;-6.240;2023-04-09T02:23:58;101877.19;;;10.20;61.94
64336;BME280;50672;53.362;-6.240;2023-04-09T02:26:25;101878.91;;;10.21;62.31
64336;BME280;50672;53.362;-6.240;2023-04-09T02:28:52;101881.06;;;10.17;62.37
64336;BME280;50672;53.362;-6.240;2023-04-09T02:31:19;101884.78;;;10.16;62.44
64336;BME280;50672;53.362;-6.240;2023-04-09T02:33:46;101888.22;;;10.18;62.79
64336;BME280;50672;53.362;-6.240;2023-04-09T02:36:13;101890.53;;;10.13;63.03
64336;BME280;50672;53.362;-6.240;2023-04-09T02:38:40;101888.06;;;10.10;62.89
64336;BME280;50672;53.362;-6.240;2023-04-09T02:41:08;101893.81;;;10.07;63.25
64336;BME280;50672;53.362;-6.240;2023-04-09T02:43:35;101895.38;;;10.09;63.20
64336;BME280;50672;53.362;-6.240;2023-04-09T02:46:02;101891.53;;;10.12;63.53
64336;BME280;50672;53.362;-6.240;2023-04-09T02:48:29;101888.81;;;10.12;63.38
64336;BME280;50672;53.362;-6.240;2023-04-09T02:50:55;101887.09;;;10.11;63.64
64336;BME280;50672;53.362;-6.240;2023-04-09T02:53:22;101880.66;;;10.12;63.66
64336;BME280;50672;53.362;-6.240;2023-04-09T02:55:49;101885.34;;;10.10;63.58
64336;BME280;50672;53.362;-6.240;2023-04-09T02:58:16;101880.94;;;10.09;63.60
64336;BME280;50672;53.362;-6.240;2023-04-09T03:00:43;101878.38;;;10.07;63.85
64336;BME280;50672;53.362;-6.240;2023-04-09T03:03:09;101882.78;;;10.08;63.91
64336;BME280;50672;53.362;-6.240;2023-04-09T03:05:36;101879.38;;;10.06;63.77
64336;BME280;50672;53.362;-6.240;2023-04-09T03:08:04;101880.22;;;10.07;63.77
64336;BME280;50672;53.362;-6.240;2023-04-09T03:10:31;101878.38;;;10.07;63.60
64336;BME280;50672;53.362;-6.240;2023-04-09T03:12:58;101872.06;;;10.07;63.65
64336;BME280;50672;53.362;-6.240;2023-04-09T03:15:24;101860.47;;;10.05;63.67
64336;BME280;50672;53.362;-6.240;2023-04-09T03:17:51;101854.00;;;10.06;63.75
64336;BME280;50672;53.362;-6.240;2023-04-09T03:20:18;101842.44;;;10.04;63.89
64336;BME280;50672;53.362;-6.240;2023-04-09T03:22:45;101837.69;;;10.06;63.62
64336;BME280;50672;53.362;-6.240;2023-04-09T03:25:12;101844.28;;;10.03;63.58
64336;BME280;50672;53.362;-6.240;2023-04-09T03:27:38;101851.44;;;10.04;63.64
64336;BME280;50672;53.362;-6.240;2023-04-09T03:30:06;101844.16;;;10.05;63.96
64336;BME280;50672;53.362;-6.240;2023-04-09T03:32:33;101844.16;;;10.05;64.03
64336;BME280;50672;53.362;-6.240;2023-04-09T03:34:59;101833.13;;;10.06;63.93
64336;BME280;50672;53.362;-6.240;2023-04-09T03:37:26;101827.69;;;10.06;63.77
64336;BME280;50672;53.362;-6.240;2023-04-09T03:39:53;101827.38;;;10.09;64.13
64336;BME280;50672;53.362;-6.240;2023-04-09T03:42:20;101823.81;;;10.09;64.02
64336;BME280;50672;53.362;-6.240;2023-04-09T03:44:46;101821.94;;;10.09;63.96
64336;BME280;50672;53.362;-6.240;2023-04-09T03:47:13;101826.38;;;10.11;64.14
64336;BME280;50672;53.362;-6.240;2023-04-09T03:49:40;101811.75;;;10.12;64.01
64336;BME280;50672;53.362;-6.240;2023-04-09T03:52:07;101817.34;;;10.10;63.99
64336;BME280;50672;53.362;-6.240;2023-04-09T03:54:34;101807.50;;;10.09;64.11
64336;BME280;50672;53.362;-6.240;2023-04-09T03:57:01;101823.81;;;10.09;64.02
64336;BME280;50672;53.362;-6.240;2023-04-09T03:59:29;101813.09;;;10.07;64.19
64336;BME280;50672;53.362;-6.240;2023-04-09T04:01:56;101806.06;;;10.05;64.29
64336;BME280;50672;53.362;-6.240;2023-04-09T04:04:23;101811.50;;;10.05;64.15
64336;BME280;50672;53.362;-6.240;2023-04-09T04:06:49;101810.78;;;10.03;64.36
64336;BME280;50672;53.362;-6.240;2023-04-09T04:09:16;101825.38;;;10.02;64.34
64336;BME280;50672;53.362;-6.240;2023-04-09T04:11:43;101822.66;;;10.02;64.29
64336;BME280;50672;53.362;-6.240;2023-04-09T04:14:10;101816.50;;;10.00;64.63
64336;BME280;50672;53.362;-6.240;2023-04-09T04:16:39;101815.53;;;10.01;64.55
64336;BME280;50672;53.362;-6.240;2023-04-09T04:19:06;101813.50;;;10.03;64.48
64336;BME280;50672;53.362;-6.240;2023-04-09T04:21:33;101808.06;;;10.03;64.61
64336;BME280;50672;53.362;-6.240;2023-04-09T04:23:59;101799.91;;;10.03;64.80
64336;BME280;50672;53.362;-6.240;2023-04-09T04:26:28;101806.22;;;10.03;64.76
64336;BME280;50672;53.362;-6.240;2023-04-09T04:28:55;101804.34;;;10.04;64.95
64336;BME280;50672;53.362;-6.240;2023-04-09T04:31:22;101807.91;;;10.04;65.11
64336;BME280;50672;53.362;-6.240;2023-04-09T04:33:49;101797.19;;;10.03;65.24
64336;BME280;50672;53.362;-6.240;2023-04-09T04:36:16;101800.63;;;10.05;65.41
64336;BME280;50672;53.362;-6.240;2023-04-09T04:38:42;101791.44;;;10.06;65.31
64336;BME280;50672;53.362;-6.240;2023-04-09T04:41:10;101781.59;;;10.05;65.74
64336;BME280;50672;53.362;-6.240;2023-04-09T04:43:37;101782.44;;;10.05;65.58
64336;BME280;50672;53.362;-6.240;2023-04-09T04:46:04;101772.53;;;10.04;65.80
64336;BME280;50672;53.362;-6.240;2023-04-09T04:48:31;101772.41;;;10.06;65.64
64336;BME280;50672;53.362;-6.240;2023-04-09T04:51:00;101773.13;;;10.08;66.11
64336;BME280;50672;53.362;-6.240;2023-04-09T04:53:27;101773.13;;;10.08;66.03
64336;BME280;50672;53.362;-6.240;2023-04-09T04:55:54;101774.84;;;10.09;66.32
64336;BME280;50672;53.362;-6.240;2023-04-09T04:58:20;101772.81;;;10.11;66.18
64336;BME280;50672;53.362;-6.240;2023-04-09T05:00:47;101763.66;;;10.12;66.30
64336;BME280;50672;53.362;-6.240;2023-04-09T05:03:14;101767.97;;;10.15;66.18
64336;BME280;50672;53.362;-6.240;2023-04-09T05:05:41;101760.50;;;10.17;66.48
64336;BME280;50672;53.362;-6.240;2023-04-09T05:08:08;101763.34;;;10.15;66.68
64336;BME280;50672;53.362;-6.240;2023-04-09T05:10:35;101763.34;;;10.15;66.53
64336;BME280;50672;53.362;-6.240;2023-04-09T05:13:02;101755.94;;;10.17;66.57
64336;BME280;50672;53.362;-6.240;2023-04-09T05:15:29;101742.31;;;10.17;66.78
64336;BME280;50672;53.362;-6.240;2023-04-09T05:17:56;101741.59;;;10.15;66.85
64336;BME280;50672;53.362;-6.240;2023-04-09T05:20:23;101737.16;;;10.14;66.73
64336;BME280;50672;53.362;-6.240;2023-04-09T05:22:52;101727.56;;;10.10;66.94
64336;BME280;50672;53.362;-6.240;2023-04-09T05:25:19;101724.69;;;10.12;66.97
64336;BME280;50672;53.362;-6.240;2023-04-09T05:27:46;101713.81;;;10.12;67.00
64336;BME280;50672;53.362;-6.240;2023-04-09T05:30:13;101723.00;;;10.11;67.28
64336;BME280;50672;53.362;-6.240;2023-04-09T05:32:40;101720.72;;;10.06;67.35
64336;BME280;50672;53.362;-6.240;2023-04-09T05:35:07;101710.56;;;10.08;67.32
64336;BME280;50672;53.362;-6.240;2023-04-09T05:37:34;101720.72;;;10.06;67.41
64336;BME280;50672;53.362;-6.240;2023-04-09T05:40:01;101717.28;;;10.04;67.35
64336;BME280;50672;53.362;-6.240;2023-04-09T05:42:28;101713.56;;;10.05;67.41
64336;BME280;50672;53.362;-6.240;2023-04-09T05:44:55;101706.13;;;10.07;67.67
64336;BME280;50672;53.362;-6.240;2023-04-09T05:47:22;101717.00;;;10.07;67.55
64336;BME280;50672;53.362;-6.240;2023-04-09T05:49:48;101709.81;;;10.06;67.74
64336;BME280;50672;53.362;-6.240;2023-04-09T05:52:15;101703.53;;;10.05;67.58
64336;BME280;50672;53.362;-6.240;2023-04-09T05:54:42;101708.97;;;10.05;67.71
64336;BME280;50672;53.362;-6.240;2023-04-09T05:57:09;101704.38;;;10.06;67.83
64336;BME280;50672;53.362;-6.240;2023-04-09T05:59:36;101707.00;;;10.07;68.10
64336;BME280;50672;53.362;-6.240;2023-04-09T06:02:03;101707.84;;;10.08;67.87
64336;BME280;50672;53.362;-6.240;2023-04-09T06:04:30;101709.41;;;10.11;67.98
64336;BME280;50672;53.362;-6.240;2023-04-09T06:06:57;101713.81;;;10.12;68.02
64336;BME280;50672;53.362;-6.240;2023-04-09T06:09:25;101705.53;;;10.13;68.30
64336;BME280;50672;53.362;-6.240;2023-04-09T06:11:57;101704.34;;;10.16;68.28
64336;BME280;50672;53.362;-6.240;2023-04-09T06:14:23;101707.66;;;10.19;68.14
64336;BME280;50672;53.362;-6.240;2023-04-09T06:16:50;101717.22;;;10.23;68.27
64336;BME280;50672;53.362;-6.240;2023-04-09T06:19:17;101729.84;;;10.24;68.16
64336;BME280;50672;53.362;-6.240;2023-04-09T06:21:44;101727.66;;;10.28;68.11
64336;BME280;50672;53.362;-6.240;2023-04-09T06:24:11;101727.50;;;10.30;68.30
64336;BME280;50672;53.362;-6.240;2023-04-09T06:26:38;101726.78;;;10.37;68.30
64336;BME280;50672;53.362;-6.240;2023-04-09T06:29:05;101714.75;;;10.40;68.26
64336;BME280;50672;53.362;-6.240;2023-04-09T06:31:32;101715.44;;;10.42;68.19
64336;BME280;50672;53.362;-6.240;2023-04-09T06:33:59;101722.16;;;10.48;68.05
64336;BME280;50672;53.362;-6.240;2023-04-09T06:36:25;101715.69;;;10.49;68.07
64336;BME280;50672;53.362;-6.240;2023-04-09T06:38:53;101705.66;;;10.49;68.07
64336;BME280;50672;53.362;-6.240;2023-04-09T06:41:21;101702.50;;;10.54;68.14
64336;BME280;50672;53.362;-6.240;2023-04-09T06:43:48;101700.31;;;10.57;68.14
64336;BME280;50672;53.362;-6.240;2023-04-09T06:46:15;101696.28;;;10.62;68.00
64336;BME280;50672;53.362;-6.240;2023-04-09T06:48:46;101685.97;;;10.65;67.82
64336;BME280;50672;53.362;-6.240;2023-04-09T06:51:12;101679.50;;;10.66;67.87
64336;BME280;50672;53.362;-6.240;2023-04-09T06:53:40;101687.53;;;10.68;67.81
64336;BME280;50672;53.362;-6.240;2023-04-09T06:56:07;101680.34;;;10.67;67.94
64336;BME280;50672;53.362;-6.240;2023-04-09T06:58:34;101675.59;;;10.69;67.82
64336;BME280;50672;53.362;-6.240;2023-04-09T07:01:01;101666.59;;;10.68;67.62
64336;BME280;50672;53.362;-6.240;2023-04-09T07:03:28;101675.75;;;10.67;67.76
64336;BME280;50672;53.362;-6.240;2023-04-09T07:05:55;101655.84;;;10.67;67.88
64336;BME280;50672;53.362;-6.240;2023-04-09T07:08:23;101652.44;;;10.65;67.88
64336;BME280;50672;53.362;-6.240;2023-04-09T07:10:50;101647.69;;;10.67;67.87
64336;BME280;50672;53.362;-6.240;2023-04-09T07:13:17;101643.41;;;10.64;67.79
64336;BME280;50672;53.362;-6.240;2023-04-09T07:15:44;101645.97;;;10.66;67.86
64336;BME280;50672;53.362;-6.240;2023-04-09T07:18:11;101637.63;;;10.67;67.77
64336;BME280;50672;53.362;-6.240;2023-04-09T07:20:37;101629.31;;;10.69;67.80
64336;BME280;50672;53.362;-6.240;2023-04-09T07:23:04;101617.09;;;10.73;67.87
64336;BME280;50672;53.362;-6.240;2023-04-09T07:25:31;101615.09;;;10.75;67.59
64336;BME280;50672;53.362;-6.240;2023-04-09T07:27:58;101616.50;;;10.79;67.59
64336;BME280;50672;53.362;-6.240;2023-04-09T07:30:25;101608.00;;;10.82;67.67
64336;BME280;50672;53.362;-6.240;2023-04-09T07:32:52;101602.25;;;10.85;67.59
64336;BME280;50672;53.362;-6.240;2023-04-09T07:35:19;101597.50;;;10.87;67.52
64336;BME280;50672;53.362;-6.240;2023-04-09T07:37:47;101589.00;;;10.90;67.86
64336;BME280;50672;53.362;-6.240;2023-04-09T07:40:13;101583.25;;;10.93;67.80
64336;BME280;50672;53.362;-6.240;2023-04-09T07:42:40;101575.78;;;10.96;67.56
64336;BME280;50672;53.362;-6.240;2023-04-09T07:45:08;101567.28;;;10.99;67.46
64336;BME280;50672;53.362;-6.240;2023-04-09T07:47:36;101565.56;;;10.98;67.71
64336;BME280;50672;53.362;-6.240;2023-04-09T07:50:03;101566.28;;;11.00;67.61
64336;BME280;50672;53.362;-6.240;2023-04-09T07:52:31;101556.06;;;11.02;67.73
64336;BME280;50672;53.362;-6.240;2023-04-09T07:54:57;101551.19;;;11.05;67.71
64336;BME280;50672;53.362;-6.240;2023-04-09T07:57:24;101547.13;;;11.09;67.74
64336;BME280;50672;53.362;-6.240;2023-04-09T07:59:51;101553.47;;;11.18;67.56
64336;BME280;50672;53.362;-6.240;2023-04-09T08:02:18;101543.78;;;11.24;67.42
64336;BME280;50672;53.362;-6.240;2023-04-09T08:04:45;101534.66;;;11.33;67.62
64336;BME280;50672;53.362;-6.240;2023-04-09T08:07:12;101537.56;;;11.40;67.41
64336;BME280;50672;53.362;-6.240;2023-04-09T08:09:39;101545.34;;;11.53;67.58
64336;BME280;50672;53.362;-6.240;2023-04-09T08:12:06;101556.75;;;11.56;67.39
64336;BME280;50672;53.362;-6.240;2023-04-09T08:14:33;101556.13;;;11.62;67.10
64336;BME280;50672;53.362;-6.240;2023-04-09T08:17:00;101542.16;;;11.66;66.97
64336;BME280;50672;53.362;-6.240;2023-04-09T08:19:27;101547.28;;;11.69;67.01
64336;BME280;50672;53.362;-6.240;2023-04-09T08:21:53;101536.91;;;11.72;67.03
64336;BME280;50672;53.362;-6.240;2023-04-09T08:24:20;101539.31;;;11.75;66.65
64336;BME280;50672;53.362;-6.240;2023-04-09T08:26:47;101529.94;;;11.78;66.64
64336;BME280;50672;53.362;-6.240;2023-04-09T08:29:14;101547.66;;;11.74;66.70
64336;BME280;50672;53.362;-6.240;2023-04-09T08:31:41;101551.06;;;11.76;66.30
64336;BME280;50672;53.362;-6.240;2023-04-09T08:34:08;101541.53;;;11.80;66.58
64336;BME280;50672;53.362;-6.240;2023-04-09T08:36:35;101529.63;;;11.89;66.44
64336;BME280;50672;53.362;-6.240;2023-04-09T08:39:02;101529.53;;;11.99;66.07
64336;BME280;50672;53.362;-6.240;2023-04-09T08:41:29;101513.66;;;12.03;65.98
64336;BME280;50672;53.362;-6.240;2023-04-09T08:43:57;101518.28;;;12.02;66.08
64336;BME280;50672;53.362;-6.240;2023-04-09T08:46:25;101520.16;;;12.02;65.61
64336;BME280;50672;53.362;-6.240;2023-04-09T08:48:53;101518.28;;;12.02;65.61
64336;BME280;50672;53.362;-6.240;2023-04-09T08:51:22;101522.19;;;12.00;65.42
64336;BME280;50672;53.362;-6.240;2023-04-09T08:53:55;101515.75;;;12.09;65.45
64336;BME280;50672;53.362;-6.240;2023-04-09T08:56:23;101525.31;;;12.13;65.25
64336;BME280;50672;53.362;-6.240;2023-04-09T08:58:50;101526.50;;;12.19;65.37
64336;BME280;50672;53.362;-6.240;2023-04-09T09:01:24;101525.66;;;12.26;65.28
64336;BME280;50672;53.362;-6.240;2023-04-09T09:06:24;101506.94;;;12.40;65.15
64336;BME280;50672;53.362;-6.240;2023-04-09T09:09:15;101505.22;;;12.47;64.91
64336;BME280;50672;53.362;-6.240;2023-04-09T09:11:44;101505.56;;;12.52;64.69
64336;BME280;50672;53.362;-6.240;2023-04-09T09:14:13;101509.69;;;12.56;64.44
64336;BME280;50672;53.362;-6.240;2023-04-09T09:16:43;101509.31;;;12.51;64.23
64336;BME280;50672;53.362;-6.240;2023-04-09T09:21:56;101514.59;;;12.53;63.99
64336;BME280;50672;53.362;-6.240;2023-04-09T09:24:23;101509.16;;;12.53;64.22
64336;BME280;50672;53.362;-6.240;2023-04-09T09:26:50;101505.22;;;12.55;63.66
64336;BME280;50672;53.362;-6.240;2023-04-09T09:29:17;101503.03;;;12.59;63.58
64336;BME280;50672;53.362;-6.240;2023-04-09T09:31:47;101501.97;;;12.60;63.40
64336;BME280;50672;53.362;-6.240;2023-04-09T09:34:15;101500.13;;;12.60;63.39
64336;BME280;50672;53.362;-6.240;2023-04-09T09:36:44;101498.94;;;12.63;63.19
64336;BME280;50672;53.362;-6.240;2023-04-09T09:39:12;101502.69;;;12.62;63.37
64336;BME280;50672;53.362;-6.240;2023-04-09T09:41:39;101496.19;;;12.63;63.01
64336;BME280;50672;53.362;-6.240;2023-04-09T09:44:11;101501.84;;;12.61;63.22
64336;BME280;50672;53.362;-6.240;2023-04-09T09:46:39;101498.06;;;12.62;62.89
64336;BME280;50672;53.362;-6.240;2023-04-09T09:49:08;101500.78;;;12.54;63.16
64336;BME280;50672;53.362;-6.240;2023-04-09T09:51:36;101504.03;;;12.50;63.20
64336;BME280;50672;53.362;-6.240;2023-04-09T09:54:06;101502.84;;;12.52;63.11
64336;BME280;50672;53.362;-6.240;2023-04-09T09:56:37;101511.38;;;12.57;63.20
64336;BME280;50672;53.362;-6.240;2023-04-09T09:59:21;101507.78;;;12.57;63.05
64336;BME280;50672;53.362;-6.240;2023-04-09T10:01:59;101492.41;;;12.56;62.88
64336;BME280;50672;53.362;-6.240;2023-04-09T10:04:28;101488.50;;;12.50;62.77
64336;BME280;50672;53.362;-6.240;2023-04-09T10:06:59;101482.72;;;12.53;62.99
64336;BME280;50672;53.362;-6.240;2023-04-09T10:09:28;101485.94;;;12.48;62.88
64336;BME280;50672;53.362;-6.240;2023-04-09T10:11:56;101500.28;;;12.51;62.94
64336;BME280;50672;53.362;-6.240;2023-04-09T10:14:24;101490.56;;;12.48;62.92
64336;BME280;50672;53.362;-6.240;2023-04-09T10:16:54;101483.91;;;12.51;62.98
64336;BME280;50672;53.362;-6.240;2023-04-09T10:19:21;101474.00;;;12.50;63.27
64336;BME280;50672;53.362;-6.240;2023-04-09T10:21:53;101493.63;;;12.53;63.39
64336;BME280;50672;53.362;-6.240;2023-04-09T10:24:23;101477.41;;;12.60;63.07
64336;BME280;50672;53.362;-6.240;2023-04-09T10:26:53;101468.53;;;12.58;63.19
64336;BME280;50672;53.362;-6.240;2023-04-09T10:29:27;101479.63;;;12.64;63.54
64336;BME280;50672;53.362;-6.240;2023-04-09T10:34:37;101473.47;;;12.62;63.67
64336;BME280;50672;53.362;-6.240;2023-04-09T10:37:16;101463.91;;;12.67;63.54
64336;BME280;50672;53.362;-6.240;2023-04-09T10:39:47;101453.50;;;12.70;63.24
64336;BME280;50672;53.362;-6.240;2023-04-09T10:42:19;101442.06;;;12.75;63.32
64336;BME280;50672;53.362;-6.240;2023-04-09T10:47:31;101437.31;;;12.60;63.64
64336;BME280;50672;53.362;-6.240;2023-04-09T10:50:20;101435.06;;;12.64;63.53
64336;BME280;50672;53.362;-6.240;2023-04-09T10:52:54;101436.59;;;12.67;63.59
64336;BME280;50672;53.362;-6.240;2023-04-09T10:55:28;101423.97;;;12.65;63.79
64336;BME280;50672;53.362;-6.240;2023-04-09T10:57:57;101428.94;;;12.62;63.60
64336;BME280;50672;53.362;-6.240;2023-04-09T11:00:23;101433.69;;;12.60;63.87
64336;BME280;50672;53.362;-6.240;2023-04-09T11:03:09;101429.13;;;12.52;64.13
64336;BME280;50672;53.362;-6.240;2023-04-09T11:05:40;101427.41;;;12.51;63.76
64336;BME280;50672;53.362;-6.240;2023-04-09T11:08:13;101408.47;;;12.50;64.21
64336;BME280;50672;53.362;-6.240;2023-04-09T11:10:44;101399.44;;;12.49;63.96
64336;BME280;50672;53.362;-6.240;2023-04-09T11:13:13;101389.34;;;12.50;64.05
64336;BME280;50672;53.362;-6.240;2023-04-09T11:15:42;101395.50;;;12.52;64.25
64336;BME280;50672;53.362;-6.240;2023-04-09T11:18:22;101393.25;;;12.55;64.21
64336;BME280;50672;53.362;-6.240;2023-04-09T11:21:01;101390.00;;;12.60;64.57
64336;BME280;50672;53.362;-6.240;2023-04-09T11:23:30;101396.66;;;12.65;64.32
64336;BME280;50672;53.362;-6.240;2023-04-09T11:25:57;101399.56;;;12.64;64.48
64336;BME280;50672;53.362;-6.240;2023-04-09T11:28:25;101391.69;;;12.69;64.70
64336;BME280;50672;53.362;-6.240;2023-04-09T11:30:52;101386.06;;;12.71;64.47
64336;BME280;50672;53.362;-6.240;2023-04-09T11:33:19;101378.22;;;12.76;64.72
64336;BME280;50672;53.362;-6.240;2023-04-09T11:35:46;101371.72;;;12.77;64.74
64336;BME280;50672;53.362;-6.240;2023-04-09T11:38:13;101367.94;;;12.78;64.73
64336;BME280;50672;53.362;-6.240;2023-04-09T11:40:42;101379.75;;;12.78;64.37
64336;BME280;50672;53.362;-6.240;2023-04-09T11:43:14;101374.47;;;12.77;64.74
64336;BME280;50672;53.362;-6.240;2023-04-09T11:45:42;101366.09;;;12.78;64.51
64336;BME280;50672;53.362;-6.240;2023-04-09T11:48:09;101361.09;;;12.82;64.65
64336;BME280;50672;53.362;-6.240;2023-04-09T11:50:37;101380.06;;;12.75;64.78
64336;BME280;50672;53.362;-6.240;2023-04-09T11:53:20;101380.78;;;12.69;64.59
64336;BME280;50672;53.362;-6.240;2023-04-09T11:55:49;101381.78;;;12.68;64.51
64336;BME280;50672;53.362;-6.240;2023-04-09T11:58:17;101379.25;;;12.67;64.57
64336;BME280;50672;53.362;-6.240;2023-04-09T12:00:47;101377.38;;;12.67;64.26
64336;BME280;50672;53.362;-6.240;2023-04-09T12:03:14;101370.69;;;12.70;64.25
64336;BME280;50672;53.362;-6.240;2023-04-09T12:05:44;101384.69;;;12.67;64.49
64336;BME280;50672;53.362;-6.240;2023-04-09T12:08:21;101383.16;;;12.64;64.72
64336;BME280;50672;53.362;-6.240;2023-04-09T12:10:49;101370.88;;;12.60;64.34
64336;BME280;50672;53.362;-6.240;2023-04-09T12:13:19;101365.59;;;12.58;64.39
64336;BME280;50672;53.362;-6.240;2023-04-09T12:15:47;101360.31;;;12.57;64.31
64336;BME280;50672;53.362;-6.240;2023-04-09T12:18:14;101338.09;;;12.60;64.04
64336;BME280;50672;53.362;-6.240;2023-04-09T12:20:42;101340.19;;;12.58;63.83
64336;BME280;50672;53.362;-6.240;2023-04-09T12:23:10;101336.25;;;12.60;64.12
64336;BME280;50672;53.362;-6.240;2023-04-09T12:25:39;101340.84;;;12.60;63.83
64336;BME280;50672;53.362;-6.240;2023-04-09T12:28:10;101334.03;;;12.56;63.95
64336;BME280;50672;53.362;-6.240;2023-04-09T12:30:37;101337.81;;;12.55;63.74
64336;BME280;50672;53.362;-6.240;2023-04-09T12:33:04;101344.63;;;12.51;63.61
64336;BME280;50672;53.362;-6.240;2023-04-09T12:35:35;101356.56;;;12.50;63.78
64336;BME280;50672;53.362;-6.240;2023-04-09T12:38:03;101346.00;;;12.46;64.15
64336;BME280;50672;53.362;-6.240;2023-04-09T12:40:30;101317.00;;;12.45;63.77
64336;BME280;50672;53.362;-6.240;2023-04-09T12:42:57;101321.63;;;12.45;63.86
64336;BME280;50672;53.362;-6.240;2023-04-09T12:45:24;101317.84;;;12.46;63.94
64336;BME280;50672;53.362;-6.240;2023-04-09T12:47:52;101304.19;;;12.46;64.05
64336;BME280;50672;53.362;-6.240;2023-04-09T12:50:19;101306.06;;;12.45;64.05
64336;BME280;50672;53.362;-6.240;2023-04-09T12:52:46;101299.25;;;12.50;64.03
64336;BME280;50672;53.362;-6.240;2023-04-09T12:55:13;101290.69;;;12.53;64.17
64336;BME280;50672;53.362;-6.240;2023-04-09T12:57:44;101286.56;;;12.57;63.90
64336;BME280;50672;53.362;-6.240;2023-04-09T13:00:13;101280.75;;;12.60;64.19
64336;BME280;50672;53.362;-6.240;2023-04-09T13:02:40;101273.09;;;12.63;63.89
64336;BME280;50672;53.362;-6.240;2023-04-09T13:05:08;101277.53;;;12.64;63.81